createdAt,value
2023-03-17T00:01:56.080Z,2.60
2023-03-17T00:04:24.489Z,2.60
2023-03-17T00:06:52.949Z,2.33
2023-03-17T00:09:21.148Z,2.70
2023-03-17T00:11:49.145Z,2.40
2023-03-17T00:14:16.887Z,2.75
2023-03-17T00:16:50.147Z,2.30
2023-03-17T00:19:21.749Z,2.40
2023-03-17T00:21:49.322Z,2.30
2023-03-17T00:24:16.163Z,2.60
2023-03-17T00:26:43.677Z,2.50
2023-03-17T00:29:10.946Z,2.38
2023-03-17T00:31:39.288Z,2.30
2023-03-17T00:34:08.077Z,2.00
2023-03-17T00:36:35.922Z,1.88
2023-03-17T00:39:06.709Z,2.25
2023-03-17T00:41:33.671Z,2.10
2023-03-17T00:44:00.320Z,1.95
2023-03-17T00:46:36.106Z,2.05
2023-03-17T00:49:10.730Z,1.70
2023-03-17T00:51:40.182Z,1.80
2023-03-17T00:54:07.168Z,2.00
2023-03-17T00:56:34.040Z,2.00
2023-03-17T00:59:00.864Z,1.88
2023-03-17T01:01:28.232Z,1.88
2023-03-17T01:03:54.904Z,1.77
2023-03-17T01:06:21.638Z,2.10
2023-03-17T01:08:48.809Z,2.10
2023-03-17T01:11:18.974Z,2.10
2023-03-17T01:13:47.744Z,2.17
2023-03-17T01:16:15.689Z,2.03
2023-03-17T01:18:42.571Z,1.98
2023-03-17T01:21:09.627Z,2.20
2023-03-17T01:23:36.730Z,2.15
2023-03-17T01:26:04.316Z,2.10
2023-03-17T01:28:31.100Z,2.20
2023-03-17T01:30:57.973Z,2.00
2023-03-17T01:33:25.687Z,2.00
2023-03-17T01:35:52.687Z,1.95
2023-03-17T01:38:19.577Z,2.00
2023-03-17T01:40:49.818Z,1.77
2023-03-17T01:43:27.733Z,2.00
2023-03-17T01:46:22.521Z,2.00
2023-03-17T01:49:05.809Z,2.22
2023-03-17T01:52:01.112Z,1.80
2023-03-17T01:54:45.224Z,2.20
2023-03-17T01:57:11.939Z,2.20
2023-03-17T01:59:44.417Z,1.90
2023-03-17T02:02:16.163Z,2.30
2023-03-17T02:04:42.877Z,2.08
2023-03-17T02:07:10.311Z,2.30
2023-03-17T02:09:41.428Z,2.38
2023-03-17T02:12:09.316Z,2.55
2023-03-17T02:14:36.607Z,2.40
2023-03-17T02:17:03.344Z,2.10
2023-03-17T02:19:30.979Z,2.40
2023-03-17T02:21:58.706Z,2.30
2023-03-17T02:24:34.381Z,2.03
2023-03-17T02:27:18.936Z,2.05
2023-03-17T02:29:46.559Z,2.25
2023-03-17T02:32:18.666Z,1.90
2023-03-17T02:34:49.598Z,2.03
2023-03-17T02:37:18.291Z,1.85
2023-03-17T02:39:45.529Z,1.83
2023-03-17T02:42:13.355Z,2.00
2023-03-17T02:44:40.585Z,2.08
2023-03-17T02:47:08.569Z,2.00
2023-03-17T02:49:37.397Z,2.33
2023-03-17T02:52:04.754Z,1.98
2023-03-17T02:54:31.811Z,2.05
2023-03-17T02:56:59.363Z,1.90
2023-03-17T02:59:26.440Z,2.30
2023-03-17T03:01:53.446Z,1.77
2023-03-17T03:04:20.361Z,2.15
2023-03-17T03:06:47.784Z,2.10
2023-03-17T03:09:15.223Z,2.08
2023-03-17T03:11:42.719Z,2.17
2023-03-17T03:14:10.140Z,2.28
2023-03-17T03:16:37.809Z,1.90
2023-03-17T03:19:04.842Z,2.10
2023-03-17T03:21:31.791Z,1.90
2023-03-17T03:23:58.599Z,2.00
2023-03-17T03:26:25.800Z,2.20
2023-03-17T03:28:52.536Z,1.90
2023-03-17T03:31:19.759Z,1.83
2023-03-17T03:33:46.631Z,2.00
2023-03-17T03:36:13.517Z,2.60
2023-03-17T03:38:41.700Z,2.58
2023-03-17T03:41:09.092Z,2.33
2023-03-17T03:43:36.922Z,2.28
2023-03-17T03:46:04.886Z,2.55
2023-03-17T03:48:31.778Z,2.22
2023-03-17T03:51:00.506Z,2.28
2023-03-17T03:53:28.440Z,2.20
2023-03-17T03:55:56.063Z,2.17
2023-03-17T03:58:23.059Z,2.20
2023-03-17T04:00:50.041Z,1.90
2023-03-17T04:03:17.115Z,1.98
2023-03-17T04:05:44.210Z,1.80
2023-03-17T04:08:11.451Z,1.80
2023-03-17T04:10:38.212Z,1.83
2023-03-17T04:13:05.068Z,2.38
2023-03-17T04:15:31.779Z,1.90
2023-03-17T04:17:58.548Z,2.15
2023-03-17T04:20:25.555Z,2.20
2023-03-17T04:22:52.485Z,2.10
2023-03-17T04:25:19.414Z,2.20
2023-03-17T04:27:46.349Z,2.30
2023-03-17T04:30:14.569Z,2.15
2023-03-17T04:32:41.816Z,2.08
2023-03-17T04:35:14.192Z,2.20
2023-03-17T04:37:41.668Z,2.08
2023-03-17T04:40:10.936Z,2.35
2023-03-17T04:42:38.394Z,2.30
2023-03-17T04:45:07.103Z,2.20
2023-03-17T04:47:33.829Z,2.40
2023-03-17T04:50:00.619Z,2.20
2023-03-17T04:52:28.451Z,2.33
2023-03-17T04:54:55.203Z,2.17
2023-03-17T04:57:22.457Z,2.40
2023-03-17T04:59:49.187Z,2.13
2023-03-17T05:02:15.918Z,2.10
2023-03-17T05:04:43.436Z,2.35
2023-03-17T05:07:10.282Z,2.13
2023-03-17T05:09:37.164Z,2.30
2023-03-17T05:12:04.276Z,2.35
2023-03-17T05:14:31.288Z,2.40
2023-03-17T05:16:57.968Z,3.72
2023-03-17T05:19:24.692Z,3.33
2023-03-17T05:21:51.613Z,2.80
2023-03-17T05:24:18.345Z,3.53
2023-03-17T05:26:45.566Z,3.42
2023-03-17T05:29:12.286Z,3.38
2023-03-17T05:31:39.108Z,2.83
2023-03-17T05:34:05.955Z,2.95
2023-03-17T05:36:33.602Z,2.75
2023-03-17T05:39:00.641Z,2.72
2023-03-17T05:41:28.203Z,2.60
2023-03-17T05:43:54.992Z,2.50
2023-03-17T05:46:22.536Z,2.55
2023-03-17T05:48:49.298Z,2.72
2023-03-17T05:51:16.073Z,2.40
2023-03-17T05:53:43.517Z,2.50
2023-03-17T05:56:10.199Z,2.50
2023-03-17T05:58:36.944Z,2.30
2023-03-17T06:01:03.784Z,2.03
2023-03-17T06:03:30.660Z,2.83
2023-03-17T06:05:57.479Z,2.60
2023-03-17T06:08:24.609Z,2.40
2023-03-17T06:10:51.548Z,2.70
2023-03-17T06:13:18.265Z,2.80
2023-03-17T06:15:46.754Z,2.67
2023-03-17T06:18:13.551Z,2.65
2023-03-17T06:20:40.297Z,2.72
2023-03-17T06:23:07.014Z,3.10
2023-03-17T06:25:35.141Z,2.50
2023-03-17T06:28:04.009Z,2.83
2023-03-17T06:30:35.320Z,2.55
2023-03-17T06:33:03.261Z,2.33
2023-03-17T06:35:33.526Z,2.53
2023-03-17T06:38:01.097Z,2.65
2023-03-17T06:40:29.040Z,2.40
2023-03-17T06:42:55.754Z,3.72
2023-03-17T06:45:22.421Z,3.83
2023-03-17T06:47:49.396Z,2.83
2023-03-17T06:50:16.293Z,2.78
2023-03-17T06:52:44.051Z,2.80
2023-03-17T06:55:12.333Z,3.00
2023-03-17T06:57:39.297Z,2.53
2023-03-17T07:00:06.980Z,2.80
2023-03-17T07:02:34.774Z,2.72
2023-03-17T07:05:01.878Z,2.95
2023-03-17T07:07:28.685Z,3.15
2023-03-17T07:09:55.533Z,3.00
2023-03-17T07:12:22.312Z,3.08
2023-03-17T07:14:49.094Z,3.13
2023-03-17T07:17:16.018Z,3.40
2023-03-17T07:19:42.913Z,3.33
2023-03-17T07:22:11.943Z,3.60
2023-03-17T07:24:38.992Z,3.90
2023-03-17T07:27:06.282Z,3.60
2023-03-17T07:29:34.108Z,3.55
2023-03-17T07:32:02.409Z,4.00
2023-03-17T07:34:29.157Z,3.35
2023-03-17T07:36:56.112Z,3.70
2023-03-17T07:39:22.881Z,3.63
2023-03-17T07:41:55.380Z,4.20
2023-03-17T07:44:23.622Z,3.83
2023-03-17T07:46:51.601Z,3.38
2023-03-17T07:49:25.155Z,2.97
2023-03-17T07:52:00.967Z,3.15
2023-03-17T07:54:29.251Z,3.22
2023-03-17T07:56:57.094Z,2.85
2023-03-17T07:59:24.028Z,3.03
2023-03-17T08:01:50.833Z,3.10
2023-03-17T08:04:17.693Z,3.50
2023-03-17T08:06:46.531Z,3.00
2023-03-17T08:09:13.472Z,2.65
2023-03-17T08:11:40.431Z,2.80
2023-03-17T08:14:07.225Z,2.80
2023-03-17T08:16:34.029Z,2.88
2023-03-17T08:19:01.052Z,2.53
2023-03-17T08:21:28.558Z,2.42
2023-03-17T08:23:55.386Z,2.50
2023-03-17T08:26:23.265Z,2.70
2023-03-17T08:28:50.406Z,2.70
2023-03-17T08:31:20.287Z,2.63
2023-03-17T08:33:53.434Z,2.80
2023-03-17T08:36:21.504Z,3.15
2023-03-17T08:38:48.535Z,2.75
2023-03-17T08:41:22.897Z,2.60
2023-03-17T08:43:50.856Z,2.40
2023-03-17T08:46:29.994Z,2.20
2023-03-17T08:48:58.926Z,2.50
2023-03-17T08:51:28.543Z,2.33
2023-03-17T08:53:56.069Z,2.30
2023-03-17T08:56:23.023Z,2.50
2023-03-17T08:58:51.002Z,2.50
2023-03-17T09:01:20.956Z,2.20
2023-03-17T09:03:48.529Z,2.30
2023-03-17T09:06:15.756Z,2.40
2023-03-17T09:08:52.954Z,2.50
2023-03-17T09:13:47.858Z,2.75
2023-03-17T09:16:16.376Z,2.50
2023-03-17T09:18:43.804Z,2.70
2023-03-17T09:21:12.105Z,2.58
2023-03-17T09:23:39.210Z,2.65
2023-03-17T09:26:06.207Z,2.92
2023-03-17T09:28:36.132Z,2.53
2023-03-17T09:31:06.344Z,2.45
2023-03-17T09:33:33.098Z,2.75
2023-03-17T09:35:59.790Z,2.30
2023-03-17T09:38:27.776Z,2.50
2023-03-17T09:41:20.677Z,2.50
2023-03-17T09:44:34.747Z,2.60
2023-03-17T09:47:04.371Z,1.90
2023-03-17T09:49:44.845Z,1.98
2023-03-17T09:52:18.750Z,2.22
2023-03-17T09:54:46.776Z,2.10
2023-03-17T09:57:18.209Z,1.90
2023-03-17T09:59:48.177Z,1.98
2023-03-17T10:02:24.904Z,2.03
2023-03-17T10:04:51.902Z,1.90
2023-03-17T10:07:26.088Z,2.00
2023-03-17T10:10:05.805Z,2.20
2023-03-17T10:12:35.444Z,2.10
2023-03-17T10:15:15.644Z,1.92
2023-03-17T10:17:42.837Z,1.98
2023-03-17T10:20:17.361Z,1.70
2023-03-17T10:22:52.934Z,1.80
2023-03-17T10:25:22.861Z,1.80
2023-03-17T10:28:03.637Z,2.15
2023-03-17T10:30:33.879Z,1.90
2023-03-17T10:33:03.474Z,1.90
2023-03-17T10:35:36.166Z,1.83
2023-03-17T10:38:19.860Z,1.80
2023-03-17T10:41:13.557Z,2.08
2023-03-17T10:43:53.695Z,2.05
2023-03-17T10:46:26.100Z,1.90
2023-03-17T10:49:18.124Z,2.28
2023-03-17T10:51:46.719Z,1.95
2023-03-17T10:54:18.917Z,2.42
2023-03-17T10:56:57.782Z,1.92
2023-03-17T10:59:33.207Z,1.73
2023-03-17T11:02:02.268Z,2.17
2023-03-17T11:04:32.041Z,1.80
2023-03-17T11:07:00.938Z,1.95
2023-03-17T11:09:34.143Z,1.80
2023-03-17T11:12:07.072Z,1.95
2023-03-17T11:14:34.064Z,2.05
2023-03-17T11:17:16.688Z,1.65
2023-03-17T11:20:07.270Z,1.73
2023-03-17T11:22:40.841Z,1.90
2023-03-17T11:25:19.492Z,1.70
2023-03-17T11:27:56.818Z,1.85
2023-03-17T11:30:36.949Z,1.70
2023-03-17T11:33:28.398Z,1.80
2023-03-17T11:36:09.743Z,1.60
2023-03-17T11:38:44.666Z,1.90
2023-03-17T11:41:26.218Z,1.50
2023-03-17T11:44:05.781Z,1.55
2023-03-17T11:47:17.221Z,1.80
2023-03-17T11:49:47.217Z,1.90
2023-03-17T11:52:17.389Z,1.60
2023-03-17T11:55:31.258Z,1.80
2023-03-17T11:58:03.367Z,1.73
2023-03-17T12:00:36.702Z,1.48
2023-03-17T12:03:15.848Z,1.60
2023-03-17T12:05:46.917Z,2.35
2023-03-17T12:08:42.374Z,2.40
2023-03-17T12:13:46.961Z,1.40
2023-03-17T12:16:22.745Z,1.50
2023-03-17T12:19:12.820Z,1.70
2023-03-17T12:21:50.431Z,1.50
2023-03-17T12:24:40.046Z,1.40
2023-03-17T12:27:17.907Z,1.40
2023-03-17T12:29:49.955Z,1.52
2023-03-17T12:32:24.385Z,1.80
2023-03-17T12:34:57.247Z,1.60
2023-03-17T12:37:27.758Z,1.50
2023-03-17T12:40:09.898Z,1.83
2023-03-17T12:43:05.571Z,1.42
2023-03-17T12:45:46.339Z,1.40
2023-03-17T12:48:27.345Z,1.55
2023-03-17T12:51:28.760Z,1.40
2023-03-17T12:53:56.110Z,1.27
2023-03-17T12:56:26.173Z,1.40
2023-03-17T12:58:58.701Z,1.20
2023-03-17T13:01:40.392Z,1.40
2023-03-17T13:04:13.016Z,1.50
2023-03-17T13:06:45.360Z,1.30
2023-03-17T13:09:37.393Z,1.10
2023-03-17T13:12:07.140Z,1.20
2023-03-17T13:14:45.010Z,1.15
2023-03-17T13:17:11.735Z,1.40
2023-03-17T13:19:54.908Z,1.60
2023-03-17T13:22:21.603Z,1.50
2023-03-17T13:24:51.452Z,1.40
2023-03-17T13:27:24.383Z,1.30
2023-03-17T13:29:51.436Z,1.30
2023-03-17T13:32:27.685Z,1.20
2023-03-17T13:35:16.708Z,1.30
2023-03-17T13:38:14.527Z,1.10
2023-03-17T13:41:08.396Z,1.20
2023-03-17T13:43:49.164Z,1.30
2023-03-17T13:46:21.340Z,1.33
2023-03-17T13:48:49.440Z,1.08
2023-03-17T13:51:52.704Z,1.08
2023-03-17T13:54:28.797Z,1.05
2023-03-17T13:56:59.405Z,1.05
2023-03-17T14:02:14.064Z,1.20
2023-03-17T14:04:52.799Z,1.30
2023-03-17T14:07:23.914Z,1.20
2023-03-17T14:09:59.486Z,1.00
2023-03-17T14:12:51.300Z,1.00
2023-03-17T14:15:27.235Z,1.00
2023-03-17T14:17:59.376Z,1.30
2023-03-17T14:20:27.765Z,0.98
2023-03-17T14:22:57.452Z,0.93
2023-03-17T14:25:26.533Z,1.05
2023-03-17T14:27:57.064Z,1.20
2023-03-17T14:33:04.572Z,0.95
2023-03-17T14:35:33.791Z,1.20
2023-03-17T14:38:02.088Z,0.80
2023-03-17T14:40:32.486Z,1.02
2023-03-17T14:42:59.252Z,1.10
2023-03-17T14:45:43.134Z,1.30
2023-03-17T14:48:14.946Z,0.98
2023-03-17T14:50:51.578Z,1.17
2023-03-17T14:53:18.731Z,0.98
2023-03-17T14:55:45.641Z,0.93
2023-03-17T15:00:46.086Z,1.27
2023-03-17T15:08:36.387Z,1.15
2023-03-17T15:11:04.515Z,1.00
2023-03-17T15:18:30.791Z,1.27
2023-03-17T15:20:58.369Z,1.50
2023-03-17T15:23:28.408Z,1.40
2023-03-17T15:25:56.553Z,1.10
2023-03-17T15:28:24.937Z,1.10
2023-03-17T15:30:53.062Z,1.20
2023-03-17T15:33:21.915Z,1.30
2023-03-17T15:35:49.220Z,1.10
2023-03-17T15:38:15.941Z,1.20
2023-03-17T15:43:13.646Z,1.00
2023-03-17T15:45:40.265Z,1.00
2023-03-17T15:48:11.307Z,1.02
2023-03-17T15:50:39.254Z,1.15
2023-03-17T15:55:33.077Z,1.20
2023-03-17T15:57:59.898Z,1.00
2023-03-17T16:00:29.998Z,1.30
2023-03-17T16:02:59.012Z,1.17
2023-03-17T16:07:56.354Z,1.33
2023-03-17T16:10:24.033Z,1.20
2023-03-17T16:12:51.124Z,1.17
2023-03-17T16:15:22.887Z,1.17
2023-03-17T16:22:53.851Z,1.05
2023-03-17T16:25:26.050Z,1.27
2023-03-17T16:27:53.283Z,1.30
2023-03-17T16:37:54.261Z,1.60
2023-03-17T16:40:20.959Z,1.40
2023-03-17T16:42:47.599Z,1.50
2023-03-17T16:45:21.944Z,1.50
2023-03-17T16:50:18.244Z,1.60
